TNCA/AUA METAR and TAF weather

Enter ICAO airport designator
Station Type Date Time Source
TNCA METAR 2019/08/22 15:00 UTC NOAA

TNCA 221500Z 10019KT 9999 FEW028 32/23 Q1014 NOSIG


Station Type Date Time Source
TNCA Decoded METAR 2019/08/22 15:00 UTC NOAA

Station name not available
Aug 22, 2019 - 11:00 AM EDT / 2019.08.22 1500 UTC
Wind: from the E (100 degrees) at 22 MPH (19 KT):0
Visibility: greater than 7 mile(s):0
Sky conditions: mostly clear
Temperature: 89 F (32 C)
Heat index: 96.8 F (36.0 C):1
Dew Point: 73 F (23 C)
Relative Humidity: 59%
Pressure (altimeter): 29.94 in. Hg (1014 hPa)
ob: TNCA 221500Z 10019KT 9999 FEW028 32/23 Q1014 NOSIG
cycle: 15

Station Type Date Time Source
TNCA TAF 2019/08/22 12:03 UTC NOAA

TAF TNCA 221200Z 2212/2312 08018KT 9999 SCT018 PROB40
TEMPO 2304/2312 7000 SHRA BKN015

Example: see airport list